createdAt,value
2017-02-26T00:00:49.077Z,0
2017-02-26T00:01:58.952Z,0
2017-02-26T00:03:08.456Z,0
2017-02-26T00:04:18.323Z,0
2017-02-26T00:05:27.809Z,0
2017-02-26T00:06:37.688Z,0
2017-02-26T00:07:46.401Z,0
2017-02-26T00:08:55.905Z,0
2017-02-26T00:10:05.386Z,0
2017-02-26T00:11:14.852Z,0
2017-02-26T00:12:24.699Z,0
2017-02-26T00:13:33.782Z,0
2017-02-26T00:14:42.494Z,0
2017-02-26T00:15:52.343Z,0
2017-02-26T00:17:01.047Z,0
2017-02-26T00:18:11.296Z,0
2017-02-26T00:19:20.780Z,0
2017-02-26T00:20:29.867Z,0
2017-02-26T00:21:38.949Z,0
2017-02-26T00:22:48.036Z,0
2017-02-26T00:23:58.289Z,0
2017-02-26T00:25:08.165Z,0
2017-02-26T00:26:18.021Z,0
2017-02-26T00:27:27.502Z,0
2017-02-26T00:28:37.347Z,0
2017-02-26T00:29:46.839Z,0
2017-02-26T00:30:56.336Z,0
2017-02-26T00:32:05.828Z,0
2017-02-26T00:33:15.690Z,0
2017-02-26T00:34:25.961Z,0
2017-02-26T00:35:35.065Z,0
2017-02-26T00:36:44.937Z,0
2017-02-26T00:37:54.420Z,0
2017-02-26T00:39:04.304Z,0
2017-02-26T00:40:13.447Z,0
2017-02-26T00:41:22.532Z,0
2017-02-26T00:42:31.646Z,0
2017-02-26T00:43:41.539Z,0
2017-02-26T00:44:50.621Z,0
2017-02-26T00:46:00.170Z,0
2017-02-26T00:47:09.269Z,0
2017-02-26T00:48:18.759Z,0
2017-02-26T00:49:28.634Z,0
2017-02-26T00:50:38.106Z,0
2017-02-26T00:51:47.600Z,0
2017-02-26T00:52:57.136Z,0
2017-02-26T00:54:06.654Z,0
2017-02-26T00:55:16.505Z,0
2017-02-26T00:56:25.599Z,0
2017-02-26T00:57:34.694Z,0
2017-02-26T00:58:44.959Z,0
2017-02-26T00:59:53.653Z,0
2017-02-26T01:01:03.505Z,0
2017-02-26T01:02:13.360Z,0
2017-02-26T01:03:22.863Z,0
2017-02-26T01:04:32.342Z,0
2017-02-26T01:05:41.799Z,0
2017-02-26T01:06:50.900Z,0
2017-02-26T01:08:00.379Z,0
2017-02-26T01:09:09.475Z,0
2017-02-26T01:10:18.582Z,0
2017-02-26T01:11:27.666Z,0
2017-02-26T01:12:36.789Z,0
2017-02-26T01:13:46.652Z,0
2017-02-26T01:14:55.736Z,0
2017-02-26T01:16:05.216Z,0
2017-02-26T01:17:15.078Z,0
2017-02-26T01:18:24.998Z,0
2017-02-26T01:19:34.858Z,0
2017-02-26T01:20:43.964Z,0
2017-02-26T01:21:53.454Z,0
2017-02-26T01:23:03.706Z,0
2017-02-26T01:24:13.217Z,0
2017-02-26T01:25:22.315Z,0
2017-02-26T01:26:32.206Z,0
2017-02-26T01:27:41.332Z,0
2017-02-26T01:28:50.822Z,0
2017-02-26T01:30:00.739Z,0
2017-02-26T01:31:10.626Z,0
2017-02-26T01:32:20.855Z,0
2017-02-26T01:33:30.729Z,0
2017-02-26T01:34:40.589Z,0
2017-02-26T01:35:50.513Z,0
2017-02-26T01:37:00.002Z,0
2017-02-26T01:38:09.101Z,0
2017-02-26T01:39:18.607Z,0
2017-02-26T01:40:28.477Z,0
2017-02-26T01:41:37.958Z,0
2017-02-26T01:42:46.656Z,0
2017-02-26T01:43:55.381Z,0
2017-02-26T01:45:04.480Z,0
2017-02-26T01:46:13.188Z,0
2017-02-26T01:47:22.676Z,0
2017-02-26T01:48:31.373Z,0
2017-02-26T01:49:41.249Z,0
2017-02-26T01:50:50.729Z,0
2017-02-26T01:52:00.972Z,0
2017-02-26T01:53:10.450Z,0
2017-02-26T01:54:19.945Z,0
2017-02-26T01:55:29.828Z,0
2017-02-26T01:56:39.317Z,0
2017-02-26T01:57:49.175Z,0
2017-02-26T01:58:59.041Z,0
2017-02-26T02:00:08.138Z,0
2017-02-26T02:01:17.615Z,0
2017-02-26T02:02:27.468Z,0
2017-02-26T02:03:36.550Z,0
2017-02-26T02:04:46.402Z,0
2017-02-26T02:05:55.511Z,0
2017-02-26T02:07:05.377Z,0
2017-02-26T02:08:14.859Z,0
2017-02-26T02:09:24.334Z,0
2017-02-26T02:10:33.802Z,0
2017-02-26T02:11:43.301Z,0
2017-02-26T02:12:52.045Z,0
2017-02-26T02:14:01.534Z,0
2017-02-26T02:15:10.660Z,0
2017-02-26T02:16:20.136Z,0
2017-02-26T02:17:29.627Z,0
2017-02-26T02:18:38.337Z,0
2017-02-26T02:19:47.812Z,0
2017-02-26T02:20:57.325Z,0
2017-02-26T02:22:06.469Z,0
2017-02-26T02:23:16.349Z,0
2017-02-26T02:24:25.435Z,0
2017-02-26T02:25:35.319Z,0
2017-02-26T02:26:44.031Z,0
2017-02-26T02:27:53.880Z,0
2017-02-26T02:29:03.351Z,0
2017-02-26T02:30:12.446Z,0
2017-02-26T02:31:21.928Z,0
2017-02-26T02:32:32.177Z,0
2017-02-26T02:33:41.661Z,0
2017-02-26T02:34:51.906Z,0
2017-02-26T02:36:01.767Z,0
2017-02-26T02:37:11.244Z,0
2017-02-26T02:38:20.713Z,0
2017-02-26T02:39:29.800Z,0
2017-02-26T02:40:38.885Z,0
2017-02-26T02:41:48.006Z,0
2017-02-26T02:42:57.486Z,0
2017-02-26T02:44:06.580Z,0
2017-02-26T02:45:16.520Z,0
2017-02-26T02:46:26.378Z,0
2017-02-26T02:47:35.483Z,0
2017-02-26T02:48:44.193Z,0
2017-02-26T02:49:54.045Z,0
2017-02-26T02:51:03.152Z,0
2017-02-26T02:52:12.992Z,0
2017-02-26T02:53:22.086Z,0
2017-02-26T02:54:31.174Z,0
2017-02-26T02:55:40.269Z,0
2017-02-26T02:56:49.037Z,0
2017-02-26T02:57:58.526Z,0
2017-02-26T02:59:08.375Z,0
2017-02-26T03:00:17.846Z,0
2017-02-26T03:01:28.090Z,0
2017-02-26T03:02:37.617Z,0
2017-02-26T03:03:47.146Z,0
2017-02-26T03:04:56.625Z,0
2017-02-26T03:06:05.709Z,0
2017-02-26T03:07:15.215Z,0
2017-02-26T03:08:24.688Z,0
2017-02-26T03:09:34.577Z,0
2017-02-26T03:10:44.440Z,0
2017-02-26T03:11:53.149Z,0
2017-02-26T03:13:02.249Z,0
2017-02-26T03:14:10.964Z,0
2017-02-26T03:15:20.085Z,0
2017-02-26T03:16:29.184Z,0
2017-02-26T03:17:38.650Z,0
2017-02-26T03:18:48.541Z,0
2017-02-26T03:19:58.791Z,0
2017-02-26T03:21:08.266Z,0
2017-02-26T03:22:18.526Z,0
2017-02-26T03:23:28.385Z,0
2017-02-26T03:24:38.243Z,0
2017-02-26T03:25:48.118Z,0
2017-02-26T03:26:58.388Z,0
2017-02-26T03:28:08.253Z,0
2017-02-26T03:29:17.355Z,0
2017-02-26T03:30:26.842Z,0
2017-02-26T03:31:36.782Z,0
2017-02-26T03:32:45.494Z,0
2017-02-26T03:33:54.986Z,0
2017-02-26T03:35:03.686Z,0
2017-02-26T03:36:12.785Z,0
2017-02-26T03:37:22.276Z,0
2017-02-26T03:38:31.373Z,0
2017-02-26T03:39:40.469Z,0
2017-02-26T03:40:49.956Z,0
2017-02-26T03:42:00.619Z,0
2017-02-26T03:43:10.112Z,0
2017-02-26T03:44:19.600Z,0
2017-02-26T03:45:29.091Z,0
2017-02-26T03:46:37.804Z,0
2017-02-26T03:47:47.283Z,0
2017-02-26T03:48:56.808Z,0
2017-02-26T03:50:05.909Z,0
2017-02-26T03:51:15.777Z,0
2017-02-26T03:52:25.666Z,0
2017-02-26T03:53:35.532Z,0
2017-02-26T03:54:45.388Z,0
2017-02-26T03:55:54.510Z,0
2017-02-26T03:57:03.992Z,0
2017-02-26T03:58:13.844Z,0
2017-02-26T03:59:23.319Z,0
2017-02-26T04:00:32.801Z,0
2017-02-26T04:01:42.327Z,0
2017-02-26T04:02:52.967Z,0
2017-02-26T04:04:02.441Z,0
2017-02-26T04:05:11.551Z,0
2017-02-26T04:06:21.183Z,0
2017-02-26T04:07:31.055Z,0
2017-02-26T04:08:40.974Z,0
2017-02-26T04:09:49.681Z,0
2017-02-26T04:10:59.151Z,0
2017-02-26T04:12:08.638Z,0
2017-02-26T04:13:18.496Z,0
2017-02-26T04:14:28.771Z,0
2017-02-26T04:15:37.532Z,0
2017-02-26T04:16:47.018Z,0
2017-02-26T04:17:56.890Z,0
2017-02-26T04:19:06.771Z,0
2017-02-26T04:20:16.269Z,0
2017-02-26T04:21:26.133Z,0
2017-02-26T04:22:35.613Z,0
2017-02-26T04:23:45.482Z,0
2017-02-26T04:24:55.748Z,0
2017-02-26T04:26:05.221Z,0
2017-02-26T04:27:14.695Z,0
2017-02-26T04:28:23.793Z,0
2017-02-26T04:29:33.318Z,0
2017-02-26T04:30:42.788Z,0
2017-02-26T04:31:53.025Z,0
2017-02-26T04:33:02.116Z,0
2017-02-26T04:34:11.576Z,0
2017-02-26T04:35:21.826Z,0
2017-02-26T04:36:30.955Z,0
2017-02-26T04:37:40.808Z,0
2017-02-26T04:38:50.284Z,0
2017-02-26T04:39:59.764Z,0
2017-02-26T04:41:08.855Z,0
2017-02-26T04:42:17.952Z,0
2017-02-26T04:43:27.428Z,0
2017-02-26T04:44:36.133Z,0
2017-02-26T04:45:45.983Z,0
2017-02-26T04:46:55.829Z,0
2017-02-26T04:48:05.681Z,0
2017-02-26T04:49:15.164Z,0
2017-02-26T04:50:24.276Z,0
2017-02-26T04:51:33.379Z,0
2017-02-26T04:52:42.901Z,0
2017-02-26T04:53:52.377Z,0
2017-02-26T04:55:01.854Z,0
2017-02-26T04:56:10.934Z,0
2017-02-26T04:57:20.798Z,0
2017-02-26T04:58:29.905Z,0
2017-02-26T04:59:38.992Z,0
2017-02-26T05:00:47.705Z,0
2017-02-26T05:01:56.804Z,0
2017-02-26T05:03:05.910Z,0
2017-02-26T05:04:15.437Z,0
2017-02-26T05:05:24.936Z,0
2017-02-26T05:06:34.397Z,0
2017-02-26T05:07:43.860Z,0
2017-02-26T05:08:53.731Z,0
2017-02-26T05:10:04.407Z,0
2017-02-26T05:11:13.895Z,0
2017-02-26T05:12:22.992Z,0
2017-02-26T05:13:31.703Z,0
2017-02-26T05:14:41.188Z,0
2017-02-26T05:15:51.443Z,0
2017-02-26T05:17:00.897Z,0
2017-02-26T05:18:11.169Z,0
2017-02-26T05:19:21.048Z,0
2017-02-26T05:20:30.147Z,0
2017-02-26T05:21:39.661Z,0
2017-02-26T05:22:49.160Z,0
2017-02-26T05:23:58.247Z,0
2017-02-26T05:25:08.480Z,0
2017-02-26T05:26:17.199Z,0
2017-02-26T05:27:26.725Z,0
2017-02-26T05:28:36.186Z,0
2017-02-26T05:29:46.441Z,0
2017-02-26T05:30:55.914Z,0
2017-02-26T05:32:05.403Z,0
2017-02-26T05:33:14.112Z,0
2017-02-26T05:34:23.967Z,0
2017-02-26T05:35:33.466Z,0
2017-02-26T05:36:43.333Z,0
2017-02-26T05:37:53.214Z,0
2017-02-26T05:39:03.093Z,0
2017-02-26T05:40:12.188Z,0
2017-02-26T05:41:21.329Z,0
2017-02-26T05:42:31.180Z,0
2017-02-26T05:43:40.656Z,0
2017-02-26T05:44:49.814Z,0
2017-02-26T05:45:58.922Z,0
2017-02-26T05:47:08.403Z,0
2017-02-26T05:48:17.502Z,0
2017-02-26T05:49:27.349Z,0
2017-02-26T05:50:36.456Z,0
2017-02-26T05:51:45.552Z,0
2017-02-26T05:52:55.419Z,0
2017-02-26T05:54:04.509Z,0
2017-02-26T05:55:14.387Z,0
2017-02-26T05:56:24.247Z,0
2017-02-26T05:57:33.326Z,0
2017-02-26T05:58:42.441Z,0
2017-02-26T05:59:52.300Z,0
2017-02-26T06:01:02.184Z,0
2017-02-26T06:02:11.284Z,0
2017-02-26T06:03:19.985Z,0
2017-02-26T06:04:28.676Z,0
2017-02-26T06:05:38.142Z,0
2017-02-26T06:06:46.844Z,0
2017-02-26T06:07:56.714Z,0
2017-02-26T06:09:06.216Z,0
2017-02-26T06:10:15.693Z,0
2017-02-26T06:11:25.195Z,0
2017-02-26T06:12:34.667Z,0
2017-02-26T06:13:44.515Z,0
2017-02-26T06:14:53.600Z,0
2017-02-26T06:16:03.069Z,0
2017-02-26T06:17:12.150Z,0
2017-02-26T06:18:21.229Z,5
2017-02-26T06:19:30.378Z,5
2017-02-26T06:20:40.255Z,5
2017-02-26T06:21:49.355Z,5
2017-02-26T06:22:59.222Z,5
2017-02-26T06:24:09.096Z,5
2017-02-26T06:25:18.570Z,10
2017-02-26T06:26:28.039Z,10
2017-02-26T06:27:37.139Z,10
2017-02-26T06:28:45.848Z,10
2017-02-26T06:29:55.343Z,10
2017-02-26T06:31:05.303Z,10
2017-02-26T06:32:14.788Z,10
2017-02-26T06:33:24.640Z,15
2017-02-26T06:34:34.112Z,15
2017-02-26T06:35:43.211Z,10
2017-02-26T06:36:53.116Z,15
2017-02-26T06:38:02.589Z,15
2017-02-26T06:39:12.069Z,20
2017-02-26T06:40:22.698Z,20
2017-02-26T06:41:32.554Z,20
2017-02-26T06:42:42.026Z,20
2017-02-26T06:43:51.161Z,20
2017-02-26T06:45:01.414Z,20
2017-02-26T06:46:10.140Z,15
2017-02-26T06:47:19.223Z,20
2017-02-26T06:48:28.349Z,20
2017-02-26T06:49:37.860Z,20
2017-02-26T06:50:46.948Z,20
2017-02-26T06:51:56.435Z,20
2017-02-26T06:53:06.678Z,20
2017-02-26T06:54:16.153Z,20
2017-02-26T06:55:26.016Z,20
2017-02-26T06:56:35.160Z,20
2017-02-26T06:57:44.269Z,25
2017-02-26T06:58:54.110Z,30
2017-02-26T07:00:03.586Z,40
2017-02-26T07:01:13.064Z,50
2017-02-26T07:02:22.185Z,60
2017-02-26T07:03:31.285Z,55
2017-02-26T07:04:41.160Z,55
2017-02-26T07:05:51.004Z,55
2017-02-26T07:07:00.871Z,55
2017-02-26T07:08:09.973Z,55
2017-02-26T07:09:19.445Z,60
2017-02-26T07:10:28.562Z,65
2017-02-26T07:11:37.674Z,70
2017-02-26T07:12:46.763Z,80
2017-02-26T07:13:55.910Z,80
2017-02-26T07:15:05.382Z,80
2017-02-26T07:16:14.854Z,75
2017-02-26T07:17:23.942Z,70
2017-02-26T07:18:33.418Z,70
2017-02-26T07:19:42.123Z,70
2017-02-26T07:20:51.633Z,65
2017-02-26T07:22:01.134Z,65
2017-02-26T07:23:10.998Z,75
2017-02-26T07:24:20.466Z,80
2017-02-26T07:25:29.949Z,85
2017-02-26T07:26:39.426Z,85
2017-02-26T07:27:48.909Z,95
2017-02-26T07:28:58.775Z,115
2017-02-26T07:30:08.238Z,135
2017-02-26T07:31:17.335Z,145
2017-02-26T07:32:26.444Z,150
2017-02-26T07:33:36.297Z,140
2017-02-26T07:34:46.166Z,125
2017-02-26T07:35:55.629Z,115
2017-02-26T07:37:05.116Z,100
2017-02-26T07:38:15.410Z,90
2017-02-26T07:39:25.289Z,85
2017-02-26T07:40:34.838Z,80
2017-02-26T07:41:44.321Z,80
2017-02-26T07:42:53.800Z,80
2017-02-26T07:44:03.699Z,75
2017-02-26T07:45:13.190Z,80
2017-02-26T07:46:23.124Z,80
2017-02-26T07:47:32.229Z,80
2017-02-26T07:48:42.086Z,85
2017-02-26T07:49:51.576Z,80
2017-02-26T07:51:01.433Z,75
2017-02-26T07:52:10.960Z,80
2017-02-26T07:53:20.046Z,80
2017-02-26T07:54:29.915Z,90
2017-02-26T07:55:39.025Z,90
2017-02-26T07:56:48.873Z,85
2017-02-26T07:57:57.991Z,75
2017-02-26T07:59:06.707Z,70
2017-02-26T08:00:15.801Z,75
2017-02-26T08:01:25.290Z,85
2017-02-26T08:02:34.003Z,90
2017-02-26T08:03:43.096Z,95
2017-02-26T08:04:52.191Z,105
2017-02-26T08:06:02.443Z,125
2017-02-26T08:07:12.324Z,175
2017-02-26T08:08:21.808Z,210
2017-02-26T08:09:30.931Z,240
2017-02-26T08:10:40.404Z,280
2017-02-26T08:11:50.267Z,285
2017-02-26T08:13:00.521Z,245
2017-02-26T08:14:09.225Z,215
2017-02-26T08:15:18.338Z,200
2017-02-26T08:16:28.187Z,200
2017-02-26T08:17:36.950Z,225
2017-02-26T08:18:46.815Z,295
2017-02-26T08:19:56.293Z,325
2017-02-26T08:21:05.393Z,345
2017-02-26T08:22:14.507Z,410
2017-02-26T08:23:24.011Z,320
2017-02-26T08:24:32.722Z,385
2017-02-26T08:25:41.424Z,450
2017-02-26T08:26:50.928Z,470
2017-02-26T08:28:00.395Z,470
2017-02-26T08:29:09.869Z,445
2017-02-26T08:30:18.596Z,405
2017-02-26T08:31:28.081Z,505
2017-02-26T08:32:36.814Z,520
2017-02-26T08:33:46.667Z,470
2017-02-26T08:34:56.524Z,420
2017-02-26T08:36:05.628Z,385
2017-02-26T08:37:15.103Z,355
2017-02-26T08:38:25.011Z,325
2017-02-26T08:39:33.719Z,320
2017-02-26T08:40:43.578Z,355
2017-02-26T08:41:53.442Z,365
2017-02-26T08:43:02.529Z,370
2017-02-26T08:44:11.632Z,355
2017-02-26T08:45:21.095Z,315
2017-02-26T08:46:31.005Z,325
2017-02-26T08:47:40.101Z,335
2017-02-26T08:48:49.955Z,295
2017-02-26T08:49:59.826Z,245
2017-02-26T08:51:08.931Z,210
2017-02-26T08:52:18.805Z,175
2017-02-26T08:53:28.282Z,175
2017-02-26T08:54:38.137Z,175
2017-02-26T08:55:46.901Z,170
2017-02-26T08:56:56.005Z,175
2017-02-26T08:58:06.250Z,165
2017-02-26T08:59:15.728Z,170
2017-02-26T09:00:25.211Z,170
2017-02-26T09:01:34.709Z,180
2017-02-26T09:02:44.586Z,185
2017-02-26T09:03:53.292Z,180
2017-02-26T09:05:03.173Z,170
2017-02-26T09:06:12.657Z,175
2017-02-26T09:07:22.138Z,190
2017-02-26T09:08:32.013Z,215
2017-02-26T09:10:57.691Z,185
2017-02-26T09:12:07.159Z,190
2017-02-26T09:13:17.383Z,190
2017-02-26T09:14:27.235Z,210
2017-02-26T09:15:37.473Z,180
2017-02-26T09:16:46.936Z,175
2017-02-26T09:17:56.786Z,185
2017-02-26T09:19:05.501Z,205
2017-02-26T09:20:14.212Z,195
2017-02-26T09:21:23.683Z,230
2017-02-26T09:22:33.550Z,200
2017-02-26T09:23:42.648Z,205
2017-02-26T09:24:51.751Z,260
2017-02-26T09:26:02.001Z,345
2017-02-26T09:27:11.094Z,385
2017-02-26T09:28:20.956Z,320
2017-02-26T09:29:31.206Z,395
2017-02-26T09:30:40.679Z,345
2017-02-26T09:31:50.582Z,345
2017-02-26T09:33:00.044Z,420
2017-02-26T09:34:09.157Z,395
2017-02-26T09:35:18.623Z,365
2017-02-26T09:36:27.705Z,320
2017-02-26T09:37:37.601Z,310
2017-02-26T09:38:47.086Z,325
2017-02-26T09:39:56.950Z,325
2017-02-26T09:41:06.435Z,335
2017-02-26T09:42:15.521Z,370
2017-02-26T09:43:25.397Z,350
2017-02-26T09:44:34.867Z,305
2017-02-26T09:45:43.576Z,295
2017-02-26T09:46:53.038Z,340
2017-02-26T09:48:02.140Z,385
2017-02-26T09:49:11.605Z,395
2017-02-26T09:50:21.062Z,370
2017-02-26T09:51:30.552Z,375
2017-02-26T09:52:40.792Z,345
2017-02-26T09:53:50.864Z,340
2017-02-26T09:55:00.343Z,350
2017-02-26T09:56:09.449Z,330
2017-02-26T09:57:19.706Z,310
2017-02-26T09:58:29.185Z,305
2017-02-26T09:59:39.799Z,355
2017-02-26T10:00:49.654Z,385
2017-02-26T10:01:58.728Z,335
2017-02-26T10:03:08.215Z,330
2017-02-26T10:04:17.692Z,310
2017-02-26T10:05:27.538Z,265
2017-02-26T10:06:37.417Z,235
2017-02-26T10:07:46.880Z,240
2017-02-26T10:08:56.355Z,240
2017-02-26T10:10:06.209Z,255
2017-02-26T10:11:16.058Z,275
2017-02-26T10:12:26.687Z,265
2017-02-26T10:13:35.763Z,250
2017-02-26T10:14:45.237Z,260
2017-02-26T10:15:55.473Z,320
2017-02-26T10:17:04.562Z,290
2017-02-26T10:18:14.426Z,240
2017-02-26T10:19:24.655Z,220
2017-02-26T10:20:34.121Z,240
2017-02-26T10:21:43.970Z,285
2017-02-26T10:22:53.479Z,370
2017-02-26T10:24:02.555Z,325
2017-02-26T10:25:11.630Z,300
2017-02-26T10:26:21.374Z,370
2017-02-26T10:27:30.465Z,375
2017-02-26T10:28:39.942Z,340
2017-02-26T10:29:49.421Z,360
2017-02-26T10:30:59.285Z,430
2017-02-26T10:32:08.372Z,375
2017-02-26T10:33:18.234Z,290
2017-02-26T10:34:27.695Z,275
2017-02-26T10:35:36.783Z,360
2017-02-26T10:36:45.873Z,410
2017-02-26T10:37:54.613Z,420
2017-02-26T10:39:04.077Z,445
2017-02-26T10:40:13.966Z,535
2017-02-26T10:41:23.464Z,580
2017-02-26T10:42:33.334Z,690
2017-02-26T10:43:43.187Z,640
2017-02-26T10:44:52.660Z,610
2017-02-26T10:46:01.749Z,655
2017-02-26T10:47:10.858Z,790
2017-02-26T10:48:21.097Z,750
2017-02-26T10:49:30.199Z,685
2017-02-26T10:50:39.315Z,630
2017-02-26T10:51:49.165Z,620
2017-02-26T10:52:58.634Z,705
2017-02-26T10:54:08.533Z,630
2017-02-26T10:55:18.763Z,550
2017-02-26T10:56:28.224Z,485
2017-02-26T10:57:37.311Z,475
2017-02-26T10:58:47.164Z,435
2017-02-26T10:59:56.278Z,455
2017-02-26T11:01:05.375Z,455
2017-02-26T11:02:14.862Z,450
2017-02-26T11:03:24.352Z,535
2017-02-26T11:04:33.433Z,525
2017-02-26T11:05:42.903Z,465
2017-02-26T11:06:52.781Z,565
2017-02-26T11:08:02.667Z,615
2017-02-26T11:09:12.537Z,555
2017-02-26T11:10:23.178Z,520
2017-02-26T11:11:32.666Z,485
2017-02-26T11:12:42.535Z,650
2017-02-26T11:13:51.653Z,850
2017-02-26T11:15:01.144Z,795
2017-02-26T11:16:10.637Z,750
2017-02-26T11:17:19.339Z,680
2017-02-26T11:18:29.211Z,645
2017-02-26T11:19:39.048Z,630
2017-02-26T11:20:48.533Z,660
2017-02-26T11:21:57.610Z,585
2017-02-26T11:23:07.470Z,640
2017-02-26T11:24:17.343Z,580
2017-02-26T11:25:27.584Z,625
2017-02-26T11:26:37.442Z,635
2017-02-26T11:27:46.162Z,660
2017-02-26T11:28:55.632Z,560
2017-02-26T11:30:05.864Z,570
2017-02-26T11:31:15.346Z,520
2017-02-26T11:32:24.450Z,470
2017-02-26T11:33:34.310Z,510
2017-02-26T11:34:44.187Z,550
2017-02-26T11:35:53.690Z,475
2017-02-26T11:37:03.165Z,495
2017-02-26T11:38:13.013Z,405
2017-02-26T11:39:22.503Z,390
2017-02-26T11:40:31.966Z,440
2017-02-26T11:41:41.059Z,545
2017-02-26T11:42:50.924Z,610
2017-02-26T11:44:00.790Z,510
2017-02-26T11:45:10.658Z,455
2017-02-26T11:46:20.501Z,445
2017-02-26T11:47:30.364Z,415
2017-02-26T11:48:40.228Z,415
2017-02-26T11:49:49.314Z,395
2017-02-26T11:50:58.432Z,440
2017-02-26T11:52:08.305Z,475
2017-02-26T11:53:18.552Z,445
2017-02-26T11:54:27.629Z,420
2017-02-26T11:55:37.501Z,375
2017-02-26T11:56:46.982Z,345
2017-02-26T11:57:56.478Z,495
2017-02-26T11:59:06.335Z,500
2017-02-26T12:00:15.810Z,455
2017-02-26T12:01:26.043Z,565
2017-02-26T12:02:35.909Z,645
2017-02-26T12:03:45.771Z,615
2017-02-26T12:04:55.642Z,780
2017-02-26T12:06:05.507Z,745
2017-02-26T12:07:15.766Z,710
2017-02-26T12:08:24.868Z,780
2017-02-26T12:09:35.138Z,720
2017-02-26T12:10:45.014Z,830
2017-02-26T12:11:54.112Z,1010
2017-02-26T12:13:03.573Z,895
2017-02-26T12:14:13.054Z,865
2017-02-26T12:15:22.907Z,835
2017-02-26T12:16:32.768Z,795
2017-02-26T12:17:43.027Z,820
2017-02-26T12:18:52.501Z,935
2017-02-26T12:20:01.605Z,610
2017-02-26T12:21:11.890Z,500
2017-02-26T12:22:21.484Z,650
2017-02-26T12:23:31.346Z,630
2017-02-26T12:24:40.066Z,715
2017-02-26T12:25:49.158Z,695
2017-02-26T12:26:59.024Z,710
2017-02-26T12:28:08.528Z,665
2017-02-26T12:29:18.039Z,685
2017-02-26T12:30:27.491Z,625
2017-02-26T12:31:36.213Z,650
2017-02-26T12:32:45.718Z,595
2017-02-26T12:33:54.730Z,530
2017-02-26T12:35:04.625Z,565
2017-02-26T12:36:13.325Z,605
2017-02-26T12:37:22.421Z,590
2017-02-26T12:38:31.467Z,595
2017-02-26T12:39:40.967Z,560
2017-02-26T12:40:50.082Z,575
2017-02-26T12:42:00.368Z,500
2017-02-26T12:43:09.454Z,610
2017-02-26T12:44:18.539Z,870
2017-02-26T12:45:27.876Z,830
2017-02-26T12:46:37.352Z,740
2017-02-26T12:47:47.612Z,760
2017-02-26T12:48:57.097Z,695
2017-02-26T12:50:06.957Z,605
2017-02-26T12:51:16.051Z,605
2017-02-26T12:52:25.953Z,670
2017-02-26T12:53:34.725Z,530
2017-02-26T12:54:44.234Z,510
2017-02-26T12:55:53.729Z,555
2017-02-26T12:57:02.457Z,645
2017-02-26T12:58:11.954Z,535
2017-02-26T12:59:21.820Z,635
2017-02-26T13:00:32.071Z,430
2017-02-26T13:01:41.626Z,515
2017-02-26T13:02:51.509Z,535
2017-02-26T13:04:01.002Z,695
2017-02-26T13:05:10.871Z,590
2017-02-26T13:06:20.722Z,625
2017-02-26T13:07:29.801Z,680
2017-02-26T13:08:38.900Z,525
2017-02-26T13:09:48.372Z,690
2017-02-26T13:10:57.888Z,610
2017-02-26T13:12:07.354Z,695
2017-02-26T13:13:16.456Z,665
2017-02-26T13:14:25.939Z,600
2017-02-26T13:15:36.178Z,545
2017-02-26T13:16:45.266Z,660
2017-02-26T13:17:54.735Z,605
2017-02-26T13:19:04.226Z,645
2017-02-26T13:20:13.716Z,635
2017-02-26T13:21:22.406Z,645
2017-02-26T13:22:31.497Z,615
2017-02-26T13:23:42.203Z,610
2017-02-26T13:24:52.447Z,650
2017-02-26T13:26:02.712Z,670
2017-02-26T13:27:12.597Z,745
2017-02-26T13:28:21.360Z,630
2017-02-26T13:29:30.448Z,580
2017-02-26T13:30:39.558Z,615
2017-02-26T13:31:49.042Z,620
2017-02-26T13:32:58.504Z,640
2017-02-26T13:34:07.606Z,585
2017-02-26T13:35:17.092Z,550
2017-02-26T13:36:26.225Z,535
2017-02-26T13:37:35.358Z,545
2017-02-26T13:38:45.247Z,465
2017-02-26T13:39:55.104Z,450
2017-02-26T13:41:04.195Z,395
2017-02-26T13:42:13.281Z,395
2017-02-26T13:43:23.925Z,415
2017-02-26T13:44:33.452Z,430
2017-02-26T13:45:43.307Z,465
2017-02-26T13:46:53.174Z,565
2017-02-26T13:48:02.268Z,595
2017-02-26T13:49:11.004Z,410
2017-02-26T13:50:20.500Z,490
2017-02-26T13:51:29.980Z,530
2017-02-26T13:52:39.442Z,625
2017-02-26T13:53:48.548Z,755
2017-02-26T13:54:58.035Z,645
2017-02-26T13:56:07.909Z,365
2017-02-26T13:57:17.776Z,350
2017-02-26T13:58:28.004Z,340
2017-02-26T13:59:37.890Z,390
2017-02-26T14:00:48.173Z,405
2017-02-26T14:01:57.678Z,405
2017-02-26T14:03:07.161Z,370
2017-02-26T14:04:16.267Z,300
2017-02-26T14:05:25.344Z,360
2017-02-26T14:06:35.203Z,330
2017-02-26T14:07:44.667Z,360
2017-02-26T14:08:54.144Z,315
2017-02-26T14:10:04.005Z,380
2017-02-26T14:11:13.486Z,400
2017-02-26T14:12:22.987Z,395
2017-02-26T14:13:32.550Z,425
2017-02-26T14:14:41.658Z,420
2017-02-26T14:15:51.147Z,475
2017-02-26T14:17:01.022Z,525
2017-02-26T14:18:11.645Z,535
2017-02-26T14:19:21.888Z,490
2017-02-26T14:20:31.352Z,520
2017-02-26T14:21:40.442Z,495
2017-02-26T14:22:49.547Z,450
2017-02-26T14:23:59.410Z,475
2017-02-26T14:25:09.289Z,485
2017-02-26T14:26:18.756Z,430
2017-02-26T14:27:29.013Z,410
2017-02-26T14:28:38.884Z,375
2017-02-26T14:29:48.367Z,380
2017-02-26T14:30:57.853Z,370
2017-02-26T14:32:07.322Z,355
2017-02-26T14:33:17.591Z,350
2017-02-26T14:34:27.073Z,370
2017-02-26T14:35:36.190Z,400
2017-02-26T14:36:45.724Z,435
2017-02-26T14:37:55.211Z,385
2017-02-26T14:39:04.351Z,400
2017-02-26T14:40:13.836Z,445
2017-02-26T14:41:23.695Z,410
2017-02-26T14:42:33.573Z,400
2017-02-26T14:43:43.064Z,370
2017-02-26T14:44:52.198Z,290
2017-02-26T14:46:01.688Z,295
2017-02-26T14:47:11.150Z,275
2017-02-26T14:48:19.852Z,355
2017-02-26T14:49:29.006Z,370
2017-02-26T14:50:37.727Z,315
2017-02-26T14:51:47.974Z,260
2017-02-26T14:52:57.454Z,270
2017-02-26T14:54:06.922Z,280
2017-02-26T14:55:17.167Z,285
2017-02-26T14:56:26.641Z,245
2017-02-26T14:57:36.506Z,240
2017-02-26T14:58:45.609Z,255
2017-02-26T14:59:55.095Z,305
2017-02-26T15:01:05.355Z,270
2017-02-26T15:02:15.616Z,245
2017-02-26T15:03:25.109Z,260
2017-02-26T15:04:35.496Z,285
2017-02-26T15:05:44.987Z,355
2017-02-26T15:06:54.624Z,330
2017-02-26T15:08:04.502Z,285
2017-02-26T15:09:14.762Z,350
2017-02-26T15:10:23.833Z,360
2017-02-26T15:11:33.738Z,380
2017-02-26T15:12:43.222Z,365
2017-02-26T15:13:52.697Z,365
2017-02-26T15:15:01.803Z,345
2017-02-26T15:16:12.032Z,360
2017-02-26T15:17:21.500Z,330
2017-02-26T15:18:30.984Z,300
2017-02-26T15:19:40.085Z,290
2017-02-26T15:20:49.169Z,280
2017-02-26T15:21:58.660Z,335
2017-02-26T15:23:08.521Z,330
2017-02-26T15:24:18.390Z,330
2017-02-26T15:25:27.503Z,240
2017-02-26T15:26:37.384Z,235
2017-02-26T15:27:46.863Z,240
2017-02-26T15:28:56.359Z,200
2017-02-26T15:30:05.452Z,210
2017-02-26T15:31:14.174Z,215
2017-02-26T15:32:23.255Z,220
2017-02-26T15:33:32.725Z,220
2017-02-26T15:34:42.196Z,185
2017-02-26T15:35:52.043Z,150
2017-02-26T15:37:01.134Z,170
2017-02-26T15:38:10.257Z,185
2017-02-26T15:39:19.332Z,150
2017-02-26T15:40:29.559Z,140
2017-02-26T15:41:38.665Z,130
2017-02-26T15:42:48.141Z,125
2017-02-26T15:43:57.611Z,125
2017-02-26T15:45:07.081Z,110
2017-02-26T15:46:16.944Z,125
2017-02-26T15:47:26.033Z,140
2017-02-26T15:48:35.909Z,110
2017-02-26T15:49:45.768Z,95
2017-02-26T15:50:54.498Z,125
2017-02-26T15:52:05.124Z,110
2017-02-26T15:53:15.383Z,115
2017-02-26T15:54:25.239Z,100
2017-02-26T15:55:34.324Z,100
2017-02-26T15:56:44.199Z,105
2017-02-26T15:57:54.439Z,110
2017-02-26T15:59:03.543Z,100
2017-02-26T16:00:13.029Z,95
2017-02-26T16:01:22.517Z,110
2017-02-26T16:02:31.624Z,130
2017-02-26T16:03:41.097Z,130
2017-02-26T16:04:50.966Z,145
2017-02-26T16:06:01.212Z,185
2017-02-26T16:07:11.073Z,210
2017-02-26T16:08:20.933Z,195
2017-02-26T16:09:30.412Z,155
2017-02-26T16:10:40.294Z,145
2017-02-26T16:11:49.383Z,140
2017-02-26T16:12:58.077Z,120
2017-02-26T16:14:07.550Z,135
2017-02-26T16:15:16.637Z,145
2017-02-26T16:16:25.765Z,140
2017-02-26T16:17:35.615Z,140
2017-02-26T16:18:45.470Z,120
2017-02-26T16:19:55.703Z,105
2017-02-26T16:21:05.170Z,100
2017-02-26T16:22:14.265Z,110
2017-02-26T16:23:23.757Z,110
2017-02-26T16:24:33.993Z,110
2017-02-26T16:25:42.684Z,120
2017-02-26T16:26:51.390Z,95
2017-02-26T16:28:00.861Z,80